Time;durP1;ratioP1;P1;durP2;ratioP2;P2;SDS_P1;SDS_P2;PMS_P1;PMS_P2;Temp;Humidity;BMP_temperature;BMP_pressure;BME280_temperature;BME280_humidity;BME280_pressure;Samples;Min_cycle;Max_cycle;Signal;HPM_P1;HPM_P2
2022/09/25 00:00:34;;;;;;;7.53;1.90;;;;;;;;;;4987785;28;20555;-66
2022/09/25 00:03:05;;;;;;;6.22;1.98;;;;;;;;;;5070535;28;20052;-66
2022/09/25 00:05:39;;;;;;;6.20;2.20;;;;;;;;;;5070605;28;20052;-66
2022/09/25 00:08:10;;;;;;;7.35;2.88;;;;;;;;;;5070443;28;20049;-66
2022/09/25 00:10:46;;;;;;;13.18;3.90;;;;;;;;;;5036633;28;20063;-66
2022/09/25 00:13:21;;;;;;;9.07;3.00;;;;;;;;;;5070396;28;20055;-66
2022/09/25 00:15:54;;;;;;;8.55;3.10;;;;;;;;;;5070581;28;20227;-66
2022/09/25 00:21:32;;;;;;;11.73;4.13;;;;;;;;;;5010685;28;20413;-66
2022/09/25 00:24:05;;;;;;;13.85;4.55;;;;;;;;;;5007077;28;20531;-66
2022/09/25 00:26:38;;;;;;;17.27;4.70;;;;;;;;;;5010451;28;20558;-65
2022/09/25 00:29:13;;;;;;;10.35;3.95;;;;;;;;;;5010133;28;20065;-66
2022/09/25 00:31:43;;;;;;;7.85;3.38;;;;;;;;;;5010458;28;20090;-66
2022/09/25 00:34:14;;;;;;;9.23;3.03;;;;;;;;;;5010176;28;20056;-66
2022/09/25 00:36:44;;;;;;;11.80;3.10;;;;;;;;;;5010179;28;20053;-66
2022/09/25 00:39:14;;;;;;;10.13;3.92;;;;;;;;;;5010237;28;20243;-66
2022/09/25 00:41:44;;;;;;;7.00;2.70;;;;;;;;;;5010124;28;20061;-66
2022/09/25 00:44:55;;;;;;;6.47;2.03;;;;;;;;;;4993906;28;20478;-66
2022/09/25 00:47:44;;;;;;;6.03;2.15;;;;;;;;;;4993403;28;20061;-66
2022/09/25 00:50:43;;;;;;;6.28;2.72;;;;;;;;;;5010014;28;20390;-66
2022/09/25 00:53:36;;;;;;;7.25;2.40;;;;;;;;;;4951261;29;20055;-66
2022/09/25 00:56:08;;;;;;;5.95;2.38;;;;;;;;;;4978120;28;20419;-66
2022/09/25 00:58:40;;;;;;;5.75;2.47;;;;;;;;;;4990312;28;20553;-66
2022/09/25 01:01:10;;;;;;;;;;;;;;;;;;4979873;28;20053;-66
2022/09/25 01:03:41;;;;;;;10.50;3.20;;;;;;;;;;4977100;28;19921;-66
2022/09/25 01:06:13;;;;;;;10.43;2.30;;;;;;;;;;5009766;28;20772;-66
2022/09/25 01:08:46;;;;;;;9.55;3.03;;;;;;;;;;5009739;28;20057;-66
2022/09/25 01:11:16;;;;;;;6.03;2.38;;;;;;;;;;5009488;28;20069;-66
2022/09/25 01:13:47;;;;;;;8.68;2.72;;;;;;;;;;4993230;28;20430;-66
2022/09/25 01:16:24;;;;;;;8.27;2.40;;;;;;;;;;4993372;28;20046;-66
2022/09/25 01:19:21;;;;;;;6.07;2.45;;;;;;;;;;5009431;28;20065;-66
2022/09/25 01:22:07;;;;;;;6.00;2.20;;;;;;;;;;4950697;28;20054;-66
2022/09/25 01:24:41;;;;;;;4.07;1.73;;;;;;;;;;4950932;29;20078;-66
2022/09/25 01:27:20;;;;;;;8.48;2.35;;;;;;;;;;4951079;28;20182;-66
2022/09/25 01:30:06;;;;;;;5.18;1.98;;;;;;;;;;4963027;28;20059;-66
2022/09/25 01:33:07;;;;;;;5.60;2.00;;;;;;;;;;4970050;28;20055;-66
2022/09/25 01:36:01;;;;;;;6.38;2.00;;;;;;;;;;4970306;28;20054;-65
2022/09/25 01:38:52;;;;;;;6.47;2.22;;;;;;;;;;4939021;28;20054;-66
2022/09/25 01:41:46;;;;;;;5.80;2.25;;;;;;;;;;4931576;29;20522;-66
2022/09/25 01:44:30;;;;;;;4.72;2.10;;;;;;;;;;4912582;29;20048;-65
2022/09/25 01:47:23;;;;;;;6.82;2.50;;;;;;;;;;4913062;29;20060;-66
2022/09/25 01:50:01;;;;;;;10.52;2.85;;;;;;;;;;4896421;29;20051;-66
2022/09/25 01:52:47;;;;;;;6.03;2.30;;;;;;;;;;4912663;29;20071;-66
2022/09/25 01:55:43;;;;;;;6.72;2.25;;;;;;;;;;4912628;29;20063;-65
2022/09/25 01:59:08;;;;;;;6.25;2.42;;;;;;;;;;4882249;29;20060;-66
2022/09/25 02:01:43;;;;;;;6.57;2.33;;;;;;;;;;4931439;29;20512;-66
2022/09/25 02:04:22;;;;;;;7.03;2.28;;;;;;;;;;4931362;29;20059;-66
2022/09/25 02:06:57;;;;;;;5.65;2.50;;;;;;;;;;4931528;29;20051;-66
2022/09/25 02:09:51;;;;;;;5.82;2.20;;;;;;;;;;4899802;29;20055;-66
2022/09/25 02:12:33;;;;;;;7.75;2.28;;;;;;;;;;4912380;29;20061;-65
2022/09/25 02:15:11;;;;;;;6.55;2.25;;;;;;;;;;4912055;29;20464;-65
2022/09/25 02:20:41;;;;;;;8.13;2.45;;;;;;;;;;4874784;29;20057;-65
2022/09/25 02:23:30;;;;;;;7.15;2.72;;;;;;;;;;4856143;29;20054;-65
2022/09/25 02:26:13;;;;;;;7.70;3.03;;;;;;;;;;4840752;29;20439;-66
2022/09/25 02:28:43;;;;;;;7.57;2.70;;;;;;;;;;4856164;29;20065;-66
2022/09/25 02:31:16;;;;;;;9.05;2.88;;;;;;;;;;4840928;29;20070;-66
2022/09/25 02:33:47;;;;;;;8.77;2.20;;;;;;;;;;4856257;29;20054;-66
2022/09/25 02:36:22;;;;;;;5.88;2.20;;;;;;;;;;4893940;29;20056;-66
2022/09/25 02:38:54;;;;;;;7.97;2.47;;;;;;;;;;4954142;29;20066;-66
2022/09/25 02:41:57;;;;;;;6.22;2.78;;;;;;;;;;4922261;29;20411;-65
2022/09/25 02:45:03;;;;;;;7.38;2.50;;;;;;;;;;4953880;28;20404;-66
2022/09/25 02:47:47;;;;;;;6.10;2.55;;;;;;;;;;4937753;29;20051;-66
2022/09/25 02:50:39;;;;;;;6.57;3.03;;;;;;;;;;4968077;28;20065;-65
2022/09/25 02:53:38;;;;;;;7.38;2.90;;;;;;;;;;4972853;28;20050;-65
2022/09/25 02:56:24;;;;;;;8.65;2.75;;;;;;;;;;5009427;28;20544;-65
2022/09/25 02:59:00;;;;;;;7.93;2.72;;;;;;;;;;4994286;28;20045;-66
2022/09/25 03:01:32;;;;;;;8.73;2.85;;;;;;;;;;4998893;28;20058;-66
2022/09/25 03:04:05;;;;;;;5.97;2.45;;;;;;;;;;5031686;28;20760;-66
2022/09/25 03:06:37;;;;;;;9.25;2.90;;;;;;;;;;5008363;28;20061;-66
2022/09/25 03:09:10;;;;;;;5.63;2.42;;;;;;;;;;4992021;28;20494;-66
2022/09/25 03:11:42;;;;;;;6.57;2.78;;;;;;;;;;4976204;28;20050;-66
2022/09/25 03:14:12;;;;;;;10.25;2.58;;;;;;;;;;4991836;28;20078;-66
2022/09/25 03:16:45;;;;;;;8.90;2.60;;;;;;;;;;4991815;28;20133;-66
2022/09/25 03:19:18;;;;;;;6.85;3.50;;;;;;;;;;5008402;28;20054;-65
2022/09/25 03:21:49;;;;;;;7.82;2.30;;;;;;;;;;4991904;28;20427;-65
2022/09/25 03:24:20;;;;;;;5.63;2.60;;;;;;;;;;4992042;28;20058;-65
2022/09/25 03:26:52;;;;;;;7.90;2.40;;;;;;;;;;4991668;28;20054;-65
2022/09/25 03:29:23;;;;;;;6.75;2.50;;;;;;;;;;4991817;28;20062;-68
2022/09/25 03:31:53;;;;;;;14.50;2.80;;;;;;;;;;4991903;28;20066;-66
2022/09/25 03:34:23;;;;;;;7.95;2.67;;;;;;;;;;5020726;28;20484;-67
2022/09/25 03:36:53;;;;;;;5.70;2.45;;;;;;;;;;5015017;28;20064;-67
2022/09/25 03:39:23;;;;;;;7.00;2.60;;;;;;;;;;5031028;28;20064;-67
2022/09/25 03:41:53;;;;;;;5.63;3.05;;;;;;;;;;5030939;28;20053;-67
2022/09/25 03:44:23;;;;;;;9.40;3.95;;;;;;;;;;5042491;28;20060;-67
2022/09/25 03:46:52;;;;;;;8.85;4.05;;;;;;;;;;5073698;28;20067;-66
2022/09/25 03:49:22;;;;;;;9.15;4.05;;;;;;;;;;5092289;28;20040;-66
2022/09/25 03:51:52;;;;;;;9.57;3.50;;;;;;;;;;5074533;28;20064;-66
2022/09/25 03:54:22;;;;;;;7.57;3.13;;;;;;;;;;5093205;28;20055;-66
2022/09/25 03:56:52;;;;;;;8.68;3.47;;;;;;;;;;5093303;28;20040;-66
2022/09/25 03:59:22;;;;;;;9.02;4.75;;;;;;;;;;5093164;28;20043;-66
2022/09/25 04:01:53;;;;;;;7.60;3.67;;;;;;;;;;5074514;28;20546;-65
2022/09/25 04:04:24;;;;;;;7.75;4.03;;;;;;;;;;5074045;28;20055;-66
2022/09/25 04:06:56;;;;;;;13.35;3.78;;;;;;;;;;5093097;28;20051;-65
2022/09/25 04:09:26;;;;;;;6.38;3.20;;;;;;;;;;5091878;28;20047;-66
2022/09/25 04:11:56;;;;;;;6.82;3.08;;;;;;;;;;5092982;28;20041;-67
2022/09/25 04:14:25;;;;;;;5.93;3.10;;;;;;;;;;5092972;28;20396;-66
2022/09/25 04:16:55;;;;;;;5.00;2.38;;;;;;;;;;5073799;28;20052;-66
2022/09/25 04:19:25;;;;;;;8.93;3.17;;;;;;;;;;5092880;28;20040;-66
2022/09/25 04:21:55;;;;;;;7.22;3.13;;;;;;;;;;5073215;28;20524;-66
2022/09/25 04:27:20;;;;;;;10.05;3.75;;;;;;;;;;5056614;28;20067;-66
2022/09/25 04:29:51;;;;;;;8.43;3.97;;;;;;;;;;5049749;28;20487;-65
2022/09/25 04:35:09;;;;;;;8.45;3.00;;;;;;;;;;5050040;28;20063;-66
2022/09/25 04:37:39;;;;;;;6.75;2.92;;;;;;;;;;5000556;28;20057;-66
2022/09/25 04:40:09;;;;;;;6.57;2.92;;;;;;;;;;5050015;28;20524;-66
2022/09/25 04:42:41;;;;;;;7.40;3.10;;;;;;;;;;5000292;28;20056;-67
2022/09/25 04:45:12;;;;;;;5.63;2.40;;;;;;;;;;5029476;28;20061;-67
2022/09/25 04:47:42;;;;;;;4.07;1.80;;;;;;;;;;4996583;28;20049;-68
2022/09/25 04:50:12;;;;;;;6.00;2.30;;;;;;;;;;5029674;28;20509;-67
2022/09/25 04:52:42;;;;;;;6.15;2.58;;;;;;;;;;5029643;28;20064;-67
2022/09/25 04:55:13;;;;;;;7.03;2.63;;;;;;;;;;5029379;28;20068;-68
2022/09/25 04:57:44;;;;;;;3.50;1.88;;;;;;;;;;5012477;28;20057;-66
2022/09/25 05:00:30;;;;;;;4.07;1.98;;;;;;;;;;5046602;28;20044;-68
2022/09/25 05:03:02;;;;;;;5.20;2.03;;;;;;;;;;5049304;28;20060;-67
2022/09/25 05:05:34;;;;;;;3.83;1.40;;;;;;;;;;5049394;28;20049;-67
2022/09/25 05:08:06;;;;;;;5.38;2.03;;;;;;;;;;5045838;28;20060;-67
2022/09/25 05:10:38;;;;;;;5.93;2.05;;;;;;;;;;5072931;28;20071;-67
2022/09/25 05:13:10;;;;;;;;;;;;;;;;;;5089910;28;20055;-66
2022/09/25 05:15:40;;;;;;;4.75;1.80;;;;;;;;;;5072805;28;19927;-66
2022/09/25 05:18:22;;;;;;;5.40;2.00;;;;;;;;;;5089447;28;20059;-66
2022/09/25 05:20:53;;;;;;;5.47;1.60;;;;;;;;;;5089419;28;20436;-66
2022/09/25 05:23:22;;;;;;;5.45;2.03;;;;;;;;;;5046833;28;20408;-66
2022/09/25 05:25:56;;;;;;;5.28;1.98;;;;;;;;;;5048681;28;20394;-66
2022/09/25 05:28:28;;;;;;;4.78;1.80;;;;;;;;;;5048850;28;20161;-65
2022/09/25 05:31:04;;;;;;;5.28;1.90;;;;;;;;;;5049004;28;20060;-66
2022/09/25 05:33:35;;;;;;;4.32;1.90;;;;;;;;;;5048852;28;20053;-66
2022/09/25 05:36:07;;;;;;;4.80;2.33;;;;;;;;;;5048635;28;20060;-66
2022/09/25 05:38:40;;;;;;;5.97;2.05;;;;;;;;;;5032163;28;20053;-66
2022/09/25 05:41:10;;;;;;;4.43;1.90;;;;;;;;;;5048863;28;20048;-66
2022/09/25 05:43:46;;;;;;;6.50;1.80;;;;;;;;;;5048680;28;20075;-66
2022/09/25 05:46:16;;;;;;;4.68;2.15;;;;;;;;;;5048851;28;20063;-66
2022/09/25 05:48:47;;;;;;;7.15;2.10;;;;;;;;;;5048673;28;20061;-66
2022/09/25 05:51:17;;;;;;;3.28;1.83;;;;;;;;;;5048645;28;20440;-66
2022/09/25 05:53:47;;;;;;;4.18;1.85;;;;;;;;;;5031863;28;20056;-66
2022/09/25 05:56:18;;;;;;;5.25;1.63;;;;;;;;;;5048699;28;20061;-65
2022/09/25 05:58:49;;;;;;;5.35;1.95;;;;;;;;;;5015579;28;20056;-65
2022/09/25 06:01:20;;;;;;;5.00;2.08;;;;;;;;;;5047865;28;20496;-66
2022/09/25 06:03:50;;;;;;;7.85;2.40;;;;;;;;;;5090222;28;20063;-65
2022/09/25 06:06:20;;;;;;;6.05;2.20;;;;;;;;;;5088903;28;20052;-66
2022/09/25 06:08:55;;;;;;;5.85;2.20;;;;;;;;;;5093163;28;20059;-66
2022/09/25 06:11:26;;;;;;;4.43;1.98;;;;;;;;;;5059699;28;20048;-66
2022/09/25 06:13:56;;;;;;;4.65;2.03;;;;;;;;;;5095283;28;20040;-66
2022/09/25 06:16:27;;;;;;;4.65;1.92;;;;;;;;;;5095187;28;20043;-65
2022/09/25 06:18:57;;;;;;;5.22;1.90;;;;;;;;;;5092905;28;20052;-66
2022/09/25 06:21:27;;;;;;;3.75;1.60;;;;;;;;;;5093166;28;20087;-66
2022/09/25 06:23:57;;;;;;;6.05;2.25;;;;;;;;;;5095003;28;20044;-66
2022/09/25 06:26:27;;;;;;;5.22;2.00;;;;;;;;;;5095139;28;20047;-66
2022/09/25 06:28:59;;;;;;;6.65;1.98;;;;;;;;;;5093739;28;20044;-65
2022/09/25 06:31:31;;;;;;;3.97;2.33;;;;;;;;;;5093907;28;20051;-65
2022/09/25 06:34:03;;;;;;;6.97;2.13;;;;;;;;;;5075474;28;20496;-66
2022/09/25 06:36:34;;;;;;;5.85;2.15;;;;;;;;;;5092798;28;20415;-66
2022/09/25 06:39:04;;;;;;;6.90;2.10;;;;;;;;;;5094737;28;20044;-65
2022/09/25 06:41:35;;;;;;;5.65;2.30;;;;;;;;;;5094703;28;20059;-66
2022/09/25 06:44:07;;;;;;;5.63;1.70;;;;;;;;;;5094575;28;20040;-65
2022/09/25 06:46:37;;;;;;;;;;;;;;;;;;5092427;28;20415;-66
2022/09/25 06:49:07;;;;;;;6.85;1.73;;;;;;;;;;5041820;28;19927;-65
2022/09/25 06:51:38;;;;;;;4.45;1.67;;;;;;;;;;5092014;28;20056;-66
2022/09/25 06:54:09;;;;;;;4.90;1.90;;;;;;;;;;5092066;28;20048;-66
2022/09/25 06:56:40;;;;;;;4.75;1.70;;;;;;;;;;5092034;28;20055;-66
2022/09/25 06:59:09;;;;;;;4.95;2.05;;;;;;;;;;5091908;28;20071;-66
2022/09/25 07:01:39;;;;;;;6.15;2.05;;;;;;;;;;5025569;28;20067;-65
2022/09/25 07:04:09;;;;;;;3.70;1.70;;;;;;;;;;5058220;28;20064;-65
2022/09/25 07:06:39;;;;;;;4.00;1.77;;;;;;;;;;5041533;28;20052;-66
2022/09/25 07:09:10;;;;;;;5.28;1.92;;;;;;;;;;5057852;28;20056;-66
2022/09/25 07:11:42;;;;;;;6.65;2.28;;;;;;;;;;5091744;28;20048;-65
2022/09/25 07:14:13;;;;;;;6.32;2.17;;;;;;;;;;5058047;28;20055;-65
2022/09/25 07:16:42;;;;;;;6.22;2.00;;;;;;;;;;5057623;28;20067;-66
2022/09/25 07:19:13;;;;;;;4.07;2.08;;;;;;;;;;5041080;28;20492;-65
2022/09/25 07:21:43;;;;;;;5.05;1.73;;;;;;;;;;5090947;28;20048;-66
2022/09/25 07:24:13;;;;;;;5.15;2.22;;;;;;;;;;5070946;28;20048;-66
2022/09/25 07:26:43;;;;;;;4.32;1.58;;;;;;;;;;5037826;28;20501;-66
2022/09/25 07:29:13;;;;;;;4.80;2.10;;;;;;;;;;5071169;28;20056;-66
2022/09/25 07:31:43;;;;;;;4.97;1.98;;;;;;;;;;5071026;28;20504;-66
2022/09/25 07:34:15;;;;;;;4.80;1.80;;;;;;;;;;5038054;28;20436;-66
2022/09/25 07:36:46;;;;;;;;;;;;;;;;;;5071478;28;20060;-66
2022/09/25 07:39:16;;;;;;;4.80;1.60;;;;;;;;;;5030937;28;19921;-65
2022/09/25 07:41:46;;;;;;;3.70;1.73;;;;;;;;;;5030986;28;20539;-66
2022/09/25 07:44:16;;;;;;;5.38;2.20;;;;;;;;;;4998049;28;20061;-65
2022/09/25 07:47:01;;;;;;;4.40;1.80;;;;;;;;;;4998065;28;20054;-65
2022/09/25 07:49:33;;;;;;;5.35;1.83;;;;;;;;;;5030838;28;20054;-65
2022/09/25 07:52:05;;;;;;;4.97;1.90;;;;;;;;;;4998056;28;20054;-66
2022/09/25 07:54:36;;;;;;;3.67;2.00;;;;;;;;;;4998822;28;20549;-67
2022/09/25 07:57:07;;;;;;;5.95;2.20;;;;;;;;;;5030888;28;20053;-65
2022/09/25 07:59:37;;;;;;;5.63;1.85;;;;;;;;;;5014729;28;20056;-65
2022/09/25 08:02:09;;;;;;;5.18;1.98;;;;;;;;;;4989762;28;20053;-66
2022/09/25 08:04:39;;;;;;;5.60;1.77;;;;;;;;;;5014346;28;20060;-66
2022/09/25 08:07:09;;;;;;;3.78;1.65;;;;;;;;;;5030407;28;20053;-66
2022/09/25 08:09:39;;;;;;;7.07;1.70;;;;;;;;;;5030502;28;20064;-66
2022/09/25 08:12:12;;;;;;;3.95;1.75;;;;;;;;;;5030624;28;20045;-66
2022/09/25 08:14:42;;;;;;;3.60;1.73;;;;;;;;;;5030563;28;20050;-66
2022/09/25 08:17:12;;;;;;;4.30;2.08;;;;;;;;;;5055115;28;20052;-66
2022/09/25 08:19:42;;;;;;;5.38;2.20;;;;;;;;;;5020495;28;20064;-66
2022/09/25 08:22:12;;;;;;;5.15;1.90;;;;;;;;;;5070252;28;20052;-66
2022/09/25 08:24:42;;;;;;;4.90;2.05;;;;;;;;;;5070222;28;20060;-66
2022/09/25 08:27:13;;;;;;;6.50;2.05;;;;;;;;;;5069832;28;20555;-66
2022/09/25 08:29:44;;;;;;;5.50;2.20;;;;;;;;;;5070234;28;20052;-66
2022/09/25 08:32:13;;;;;;;5.53;2.58;;;;;;;;;;5068886;28;20436;-67
2022/09/25 08:34:43;;;;;;;5.63;2.05;;;;;;;;;;5036716;28;20068;-68
2022/09/25 08:37:14;;;;;;;4.95;2.00;;;;;;;;;;5049529;28;20052;-67
2022/09/25 08:39:44;;;;;;;5.35;2.50;;;;;;;;;;5029716;28;20045;-66
2022/09/25 08:42:35;;;;;;;5.10;2.30;;;;;;;;;;5029873;28;20049;-68
2022/09/25 08:51:13;;;;;;;5.72;2.25;;;;;;;;;;5013055;28;20056;-69
2022/09/25 08:53:45;;;;;;;5.85;1.90;;;;;;;;;;5029587;28;20049;-68
2022/09/25 08:56:18;;;;;;;6.85;2.33;;;;;;;;;;5030092;28;20387;-68
2022/09/25 08:58:58;;;;;;;6.10;2.40;;;;;;;;;;5029671;28;20604;-67
2022/09/25 09:01:46;;;;;;;4.68;1.92;;;;;;;;;;5012988;28;20397;-66
2022/09/25 09:04:18;;;;;;;6.57;1.90;;;;;;;;;;4996925;28;20062;-66
2022/09/25 09:06:54;;;;;;;7.03;2.63;;;;;;;;;;5029476;28;20537;-66
2022/09/25 09:09:51;;;;;;;4.10;1.98;;;;;;;;;;5029434;28;20075;-66
2022/09/25 09:12:45;;;;;;;4.82;2.50;;;;;;;;;;5013292;28;20045;-66
2022/09/25 09:15:31;;;;;;;7.57;2.22;;;;;;;;;;5023414;28;20056;-68
2022/09/25 09:18:16;;;;;;;5.43;2.22;;;;;;;;;;5043156;28;20048;-68
2022/09/25 09:21:25;;;;;;;2.97;1.77;;;;;;;;;;5052731;28;20087;-68
2022/09/25 09:24:07;;;;;;;4.80;2.13;;;;;;;;;;5052813;28;20071;-69
2022/09/25 09:26:38;;;;;;;6.28;2.15;;;;;;;;;;5019425;28;20060;-66
2022/09/25 09:29:36;;;;;;;6.03;2.70;;;;;;;;;;5035687;28;20056;-66
2022/09/25 09:32:12;;;;;;;;;;;;;;;;;;5069437;28;20052;-66
2022/09/25 09:34:48;;;;;;;5.88;2.40;;;;;;;;;;5068874;28;20360;-66
2022/09/25 09:38:13;;;;;;;5.30;2.08;;;;;;;;;;5068815;28;20123;-66
2022/09/25 09:41:18;;;;;;;5.63;2.55;;;;;;;;;;5009251;28;20075;-66
2022/09/25 09:44:18;;;;;;;9.05;2.40;;;;;;;;;;4899495;29;20060;-66
2022/09/25 09:46:52;;;;;;;9.02;2.72;;;;;;;;;;4931861;29;20044;-68
2022/09/25 09:49:43;;;;;;;7.05;2.65;;;;;;;;;;4912277;29;20056;-66
2022/09/25 09:52:20;;;;;;;6.18;3.10;;;;;;;;;;4912703;29;20059;-66
2022/09/25 09:55:03;;;;;;;6.28;2.33;;;;;;;;;;4893409;29;20049;-66
2022/09/25 09:57:55;;;;;;;7.53;2.35;;;;;;;;;;4862494;29;20049;-66
2022/09/25 10:00:25;;;;;;;;;;;;;;;;;;4894327;29;20094;-66
2022/09/25 10:03:23;;;;;;;7.07;2.38;;;;;;;;;;4893947;29;19930;-66
2022/09/25 10:05:58;;;;;;;8.20;2.33;;;;;;;;;;4893683;29;20053;-66
2022/09/25 10:08:29;;;;;;;6.85;2.10;;;;;;;;;;4893609;29;20059;-66
2022/09/25 10:11:03;;;;;;;7.10;2.47;;;;;;;;;;4862402;29;20626;-66
2022/09/25 10:13:37;;;;;;;6.45;2.70;;;;;;;;;;4893679;29;20057;-66
2022/09/25 10:16:23;;;;;;;3.42;1.95;;;;;;;;;;4912235;29;20060;-66
2022/09/25 10:19:12;;;;;;;5.15;2.30;;;;;;;;;;4912596;29;20048;-66
2022/09/25 10:22:06;;;;;;;5.03;2.30;;;;;;;;;;4966467;28;20087;-66
2022/09/25 10:24:52;;;;;;;5.50;2.25;;;;;;;;;;4950471;29;20082;-66
2022/09/25 10:27:48;;;;;;;5.47;2.25;;;;;;;;;;4976584;28;20074;-66
2022/09/25 10:30:22;;;;;;;5.38;2.28;;;;;;;;;;4982652;28;20088;-66
2022/09/25 10:33:13;;;;;;;4.32;2.00;;;;;;;;;;4989061;28;20073;-66
2022/09/25 10:35:44;;;;;;;6.63;2.80;;;;;;;;;;4989195;28;20573;-66
2022/09/25 10:38:22;;;;;;;6.32;2.72;;;;;;;;;;4988873;28;20058;-66
2022/09/25 10:41:11;;;;;;;6.68;2.78;;;;;;;;;;4956911;28;20062;-66
2022/09/25 10:43:54;;;;;;;7.40;2.50;;;;;;;;;;4989192;28;20050;-66
2022/09/25 10:52:14;;;;;;;11.18;4.75;;;;;;;;;;4976246;28;20533;-67
2022/09/25 10:54:44;;;;;;;5.28;2.45;;;;;;;;;;4976951;28;20066;-66
2022/09/25 10:57:34;;;;;;;7.50;2.70;;;;;;;;;;4995746;28;20066;-67
2022/09/25 11:00:27;;;;;;;6.28;2.58;;;;;;;;;;4995802;28;20054;-67
2022/09/25 11:03:01;;;;;;;6.75;3.13;;;;;;;;;;5012052;28;20061;-67
2022/09/25 11:05:36;;;;;;;5.68;2.33;;;;;;;;;;5012095;28;20069;-67
2022/09/25 11:08:08;;;;;;;6.70;2.92;;;;;;;;;;5011808;28;20050;-67
2022/09/25 11:10:55;;;;;;;5.50;2.28;;;;;;;;;;4995721;28;20553;-68
2022/09/25 11:13:32;;;;;;;5.07;2.22;;;;;;;;;;5011753;28;20058;-67
2022/09/25 11:16:09;;;;;;;8.32;2.85;;;;;;;;;;4979683;28;20050;-67
2022/09/25 11:18:44;;;;;;;6.50;3.15;;;;;;;;;;5011460;28;20049;-67
2022/09/25 11:21:17;;;;;;;6.53;2.58;;;;;;;;;;4979139;28;20425;-67
2022/09/25 11:24:00;;;;;;;5.50;2.58;;;;;;;;;;4962923;28;20049;-67
2022/09/25 11:26:46;;;;;;;6.57;2.30;;;;;;;;;;5024853;28;20512;-66
2022/09/25 11:29:40;;;;;;;6.90;2.20;;;;;;;;;;5031185;28;20045;-66
2022/09/25 11:32:54;;;;;;;4.55;2.40;;;;;;;;;;5031167;28;20111;-67
2022/09/25 11:35:45;;;;;;;5.65;2.38;;;;;;;;;;4953060;29;20051;-67
2022/09/25 11:41:54;;;;;;;8.70;3.03;;;;;;;;;;4877319;29;20510;-67
2022/09/25 11:44:35;;;;;;;12.73;2.60;;;;;;;;;;4877245;29;20053;-66
2022/09/25 11:47:22;;;;;;;4.45;2.10;;;;;;;;;;4846072;29;20560;-67
2022/09/25 11:49:53;;;;;;;6.78;2.45;;;;;;;;;;4877061;29;20065;-67
2022/09/25 11:52:36;;;;;;;5.60;2.38;;;;;;;;;;4845995;29;20056;-68
2022/09/25 11:55:25;;;;;;;5.50;2.38;;;;;;;;;;4858684;29;20084;-67
2022/09/25 11:58:25;;;;;;;7.25;2.55;;;;;;;;;;4895680;29;20056;-66
2022/09/25 12:01:25;;;;;;;5.13;2.10;;;;;;;;;;4895625;29;20064;-66
2022/09/25 12:04:48;;;;;;;7.43;2.60;;;;;;;;;;4895495;29;20060;-67
2022/09/25 12:07:51;;;;;;;7.07;2.28;;;;;;;;;;4793000;29;20062;-68
2022/09/25 12:10:45;;;;;;;5.93;2.72;;;;;;;;;;4803463;29;20568;-67
2022/09/25 12:13:43;;;;;;;5.85;2.47;;;;;;;;;;4819602;29;20087;-67
2022/09/25 12:16:19;;;;;;;;;;;;;;;;;;4884155;29;20434;-67
2022/09/25 12:18:52;;;;;;;5.07;1.98;;;;;;;;;;4895412;29;19924;-66
2022/09/25 12:21:51;;;;;;;7.25;2.30;;;;;;;;;;4879456;29;20421;-66
2022/09/25 12:24:34;;;;;;;6.78;2.58;;;;;;;;;;4863877;29;20053;-67
2022/09/25 12:27:16;;;;;;;5.85;2.72;;;;;;;;;;4895178;29;20055;-66
2022/09/25 12:30:05;;;;;;;6.88;2.03;;;;;;;;;;4895107;29;20065;-67
2022/09/25 12:32:49;;;;;;;5.45;2.05;;;;;;;;;;4894954;29;20060;-67
2022/09/25 12:35:57;;;;;;;5.55;2.20;;;;;;;;;;4864054;29;20509;-69
2022/09/25 12:38:49;;;;;;;4.65;1.63;;;;;;;;;;4894794;29;20064;-71
2022/09/25 12:41:35;;;;;;;4.53;2.15;;;;;;;;;;4894936;29;20048;-66
2022/09/25 12:44:11;;;;;;;;;;;;;;;;;;5023684;28;20052;-67
2022/09/25 12:47:06;;;;;;;5.95;2.65;;;;;;;;;;5089731;28;19947;-69
2022/09/25 12:49:39;;;;;;;8.90;3.70;;;;;;;;;;5056185;28;20060;-66
2022/09/25 12:52:15;;;;;;;7.95;2.83;;;;;;;;;;5089688;28;20543;-67
2022/09/25 12:55:01;;;;;;;5.03;2.03;;;;;;;;;;5089388;28;20055;-67
2022/09/25 12:57:47;;;;;;;3.53;1.60;;;;;;;;;;5049212;28;20080;-67
2022/09/25 13:00:27;;;;;;;9.45;2.50;;;;;;;;;;4958032;28;20061;-66
2022/09/25 13:03:16;;;;;;;5.72;2.13;;;;;;;;;;4958258;28;20058;-67
2022/09/25 13:05:55;;;;;;;6.20;2.47;;;;;;;;;;4958014;28;20058;-68
2022/09/25 13:08:36;;;;;;;4.90;2.22;;;;;;;;;;4990009;28;20050;-66
2022/09/25 13:11:53;;;;;;;8.63;3.85;;;;;;;;;;4977188;28;20528;-66
2022/09/25 13:14:34;;;;;;;4.57;2.03;;;;;;;;;;4977388;28;20077;-67
2022/09/25 13:17:10;;;;;;;6.38;2.17;;;;;;;;;;4993369;28;20061;-67
2022/09/25 13:19:40;;;;;;;5.22;2.22;;;;;;;;;;4992837;28;20442;-67
2022/09/25 13:22:19;;;;;;;4.85;2.33;;;;;;;;;;4977255;28;20061;-66
2022/09/25 13:25:12;;;;;;;4.75;2.40;;;;;;;;;;4963189;28;20059;-67
2022/09/25 13:27:47;;;;;;;5.72;2.33;;;;;;;;;;4992984;28;20525;-66
2022/09/25 13:30:20;;;;;;;5.35;2.50;;;;;;;;;;5044074;28;20057;-68
2022/09/25 13:32:54;;;;;;;10.13;5.03;;;;;;;;;;5068712;28;20544;-66
2022/09/25 13:35:24;;;;;;;7.35;3.83;;;;;;;;;;5068732;28;20158;-66
2022/09/25 13:38:08;;;;;;;6.03;2.10;;;;;;;;;;5069023;28;20071;-66
2022/09/25 13:40:42;;;;;;;5.57;2.42;;;;;;;;;;5068874;28;20069;-66
2022/09/25 13:43:22;;;;;;;3.67;1.98;;;;;;;;;;5069000;28;20057;-66
2022/09/25 13:46:22;;;;;;;5.05;2.20;;;;;;;;;;5069008;28;20667;-66
2022/09/25 13:48:54;;;;;;;6.85;2.15;;;;;;;;;;5057635;28;20053;-66
2022/09/25 13:51:24;;;;;;;6.55;2.30;;;;;;;;;;5048766;28;20404;-66
2022/09/25 13:54:02;;;;;;;3.92;1.88;;;;;;;;;;5048643;28;20201;-66
2022/09/25 13:56:42;;;;;;;3.80;1.90;;;;;;;;;;5048719;28;20049;-66
2022/09/25 13:59:12;;;;;;;7.13;2.30;;;;;;;;;;5048696;28;20068;-66
2022/09/25 14:01:44;;;;;;;4.15;2.30;;;;;;;;;;4995789;28;20049;-66
2022/09/25 14:04:16;;;;;;;5.13;2.42;;;;;;;;;;5028737;28;20069;-66
2022/09/25 14:06:52;;;;;;;4.68;1.88;;;;;;;;;;5028561;28;20084;-66
2022/09/25 14:09:27;;;;;;;5.45;1.90;;;;;;;;;;4997095;28;20060;-66
2022/09/25 14:12:03;;;;;;;5.68;2.20;;;;;;;;;;5034128;28;20049;-66
2022/09/25 14:14:44;;;;;;;5.93;2.20;;;;;;;;;;5088868;28;20056;-66
2022/09/25 14:17:15;;;;;;;4.43;2.08;;;;;;;;;;5088575;28;20055;-66
2022/09/25 14:19:54;;;;;;;3.90;1.90;;;;;;;;;;5038751;28;20516;-66
2022/09/25 14:22:31;;;;;;;3.92;1.80;;;;;;;;;;5071742;28;20044;-66
2022/09/25 14:25:02;;;;;;;4.15;1.50;;;;;;;;;;5055135;28;20048;-66
2022/09/25 14:27:32;;;;;;;4.10;1.83;;;;;;;;;;5028137;28;20498;-67
2022/09/25 14:30:06;;;;;;;3.72;1.75;;;;;;;;;;5028721;28;20054;-67
2022/09/25 14:32:56;;;;;;;4.53;1.85;;;;;;;;;;5032312;28;21194;-66
2022/09/25 14:36:02;;;;;;;4.15;1.90;;;;;;;;;;5016183;28;20053;-66
2022/09/25 14:38:47;;;;;;;4.45;1.88;;;;;;;;;;5035749;28;20064;-66
2022/09/25 14:41:22;;;;;;;;;;;;;;;;;;5052718;28;20052;-68
2022/09/25 14:44:17;;;;;;;3.60;1.58;;;;;;;;;;5035397;28;20193;-65
2022/09/25 14:46:52;;;;;;;4.13;1.75;;;;;;;;;;5051975;28;20053;-66
2022/09/25 14:49:32;;;;;;;3.80;1.77;;;;;;;;;;5051906;28;20053;-66
2022/09/25 14:52:11;;;;;;;3.88;1.83;;;;;;;;;;5052234;28;20053;-66
2022/09/25 14:54:45;;;;;;;5.13;2.20;;;;;;;;;;5051969;28;20056;-67
2022/09/25 14:57:21;;;;;;;5.20;2.05;;;;;;;;;;4983252;28;20041;-68
2022/09/25 14:59:59;;;;;;;4.10;1.75;;;;;;;;;;5011897;28;20057;-68
2022/09/25 15:02:41;;;;;;;6.20;2.88;;;;;;;;;;5012018;28;20528;-67
2022/09/25 15:05:26;;;;;;;8.38;3.80;;;;;;;;;;4985793;28;20061;-66
2022/09/25 15:08:00;;;;;;;7.07;3.05;;;;;;;;;;4943765;28;20057;-67
2022/09/25 15:10:32;;;;;;;10.70;3.97;;;;;;;;;;4940482;28;20462;-65
2022/09/25 15:13:19;;;;;;;6.60;3.42;;;;;;;;;;4940781;28;20050;-65
2022/09/25 15:18:49;;;;;;;5.93;2.00;;;;;;;;;;4972708;28;20543;-66
2022/09/25 15:21:34;;;;;;;4.18;1.73;;;;;;;;;;4972970;28;20059;-66
2022/09/25 15:24:16;;;;;;;4.30;1.85;;;;;;;;;;4956255;28;20546;-66
2022/09/25 15:27:02;;;;;;;4.55;1.90;;;;;;;;;;4972565;28;20047;-65
2022/09/25 15:29:37;;;;;;;4.68;1.80;;;;;;;;;;4955912;28;20914;-65
2022/09/25 15:32:22;;;;;;;4.72;2.10;;;;;;;;;;4924686;28;20055;-65
2022/09/25 15:35:18;;;;;;;5.53;2.15;;;;;;;;;;4933738;28;20062;-64
2022/09/25 15:37:48;;;;;;;7.10;2.38;;;;;;;;;;4945399;29;20056;-65
2022/09/25 15:40:29;;;;;;;4.43;2.15;;;;;;;;;;4917657;29;20107;-65
2022/09/25 15:43:01;;;;;;;7.45;3.05;;;;;;;;;;4944030;28;20055;-65
2022/09/25 15:45:40;;;;;;;4.72;2.25;;;;;;;;;;4953082;28;20079;-65
2022/09/25 15:48:31;;;;;;;6.18;2.67;;;;;;;;;;4972412;28;20522;-66
2022/09/25 15:51:05;;;;;;;6.95;3.05;;;;;;;;;;4959189;28;20085;-66
2022/09/25 15:53:44;;;;;;;8.02;2.45;;;;;;;;;;4991244;28;20058;-66
2022/09/25 15:56:25;;;;;;;5.15;2.33;;;;;;;;;;4976451;28;20066;-66
2022/09/25 15:59:22;;;;;;;5.70;2.40;;;;;;;;;;4991328;28;20054;-66
2022/09/25 16:04:49;;;;;;;4.18;1.90;;;;;;;;;;4943031;28;20399;-66
2022/09/25 16:07:25;;;;;;;8.20;2.35;;;;;;;;;;4971623;28;20057;-65
2022/09/25 16:10:16;;;;;;;6.47;1.95;;;;;;;;;;4955451;28;20082;-66
2022/09/25 16:12:48;;;;;;;4.72;2.05;;;;;;;;;;4971051;28;20232;-66
2022/09/25 16:15:28;;;;;;;4.38;1.85;;;;;;;;;;5022274;28;20547;-67
2022/09/25 16:18:20;;;;;;;5.10;2.13;;;;;;;;;;5054359;28;20063;-67
2022/09/25 16:20:57;;;;;;;6.07;2.63;;;;;;;;;;5090518;28;20062;-68
2022/09/25 16:23:28;;;;;;;8.07;3.13;;;;;;;;;;5057408;28;20048;-68